Time;durP1;ratioP1;P1;durP2;ratioP2;P2;SDS_P1;SDS_P2;PMS_P1;PMS_P2;Temp;Humidity;BMP_temperature;BMP_pressure;BME280_temperature;BME280_humidity;BME280_pressure;Samples;Min_cycle;Max_cycle;Signal;HPM_P1;HPM_P2
2022/11/20 00:01:34;;;;;;;26.58;16.02;;;5.70;99.90;;;;;;6120998;23;20190;-74
2022/11/20 00:04:02;;;;;;;20.23;16.40;;;5.70;99.90;;;;;;6146936;23;20344;-74
2022/11/20 00:06:31;;;;;;;22.55;15.98;;;5.60;99.90;;;;;;6149802;23;20197;-75
2022/11/20 00:09:01;;;;;;;19.00;15.48;;;5.60;99.90;;;;;;6147640;23;20190;-75
2022/11/20 00:11:30;;;;;;;20.70;14.77;;;5.60;99.90;;;;;;6152900;23;20273;-75
2022/11/20 00:14:01;;;;;;;18.63;13.43;;;5.60;99.90;;;;;;6147161;23;20195;-75
2022/11/20 00:16:30;;;;;;;19.65;14.48;;;5.50;99.90;;;;;;6147527;23;20273;-75
2022/11/20 00:18:57;;;;;;;47.45;15.40;;;5.40;99.90;;;;;;6123846;23;20521;-75
2022/11/20 00:21:27;;;;;;;32.28;16.00;;;5.40;99.90;;;;;;6146612;23;20659;-75
2022/11/20 00:23:57;;;;;;;23.60;14.48;;;5.40;99.90;;;;;;6138298;23;20652;-75
2022/11/20 00:26:26;;;;;;;17.05;12.95;;;5.40;99.90;;;;;;6142162;23;20640;-75
2022/11/20 00:28:55;;;;;;;56.70;16.83;;;5.30;99.90;;;;;;6128847;23;20259;-75
2022/11/20 00:31:23;;;;;;;23.42;16.02;;;5.30;99.90;;;;;;6147486;23;20230;-75
2022/11/20 00:33:50;;;;;;;20.77;15.73;;;5.30;99.90;;;;;;6138516;23;20662;-75
2022/11/20 00:36:19;;;;;;;15.82;14.15;;;5.30;99.90;;;;;;6146342;23;20217;-75
2022/11/20 00:38:47;;;;;;;16.00;14.30;;;5.40;99.90;;;;;;6129754;23;20270;-75
2022/11/20 00:41:16;;;;;;;16.70;14.40;;;5.40;99.90;;;;;;6140716;23;20257;-75
2022/11/20 00:43:45;;;;;;;16.33;14.50;;;5.50;99.90;;;;;;6137739;23;20191;-75
2022/11/20 00:46:15;;;;;;;14.90;13.27;;;5.60;99.90;;;;;;6142301;23;20684;-75
2022/11/20 00:48:42;;;;;;;13.98;12.30;;;5.60;99.90;;;;;;6122488;23;20187;-75
2022/11/20 00:51:11;;;;;;;14.73;13.18;;;5.70;99.90;;;;;;6145961;23;20191;-75
2022/11/20 00:53:39;;;;;;;14.68;13.18;;;5.70;99.90;;;;;;6122623;23;20237;-75
2022/11/20 00:56:10;;;;;;;14.15;12.45;;;5.70;99.90;;;;;;6155524;23;20675;-75
2022/11/20 00:58:40;;;;;;;15.02;13.32;;;5.80;99.90;;;;;;6159350;23;20273;-75
2022/11/20 01:01:09;;;;;;;24.52;12.15;;;5.70;99.90;;;;;;6145832;23;20301;-75
2022/11/20 01:03:39;;;;;;;17.23;12.75;;;5.70;99.90;;;;;;6133724;23;20191;-75
2022/11/20 01:06:09;;;;;;;19.05;12.55;;;5.70;99.90;;;;;;6147109;23;20635;-75
2022/11/20 01:08:37;;;;;;;13.80;12.23;;;5.70;99.90;;;;;;6148294;23;20201;-75
2022/11/20 01:11:07;;;;;;;20.52;13.07;;;5.60;99.90;;;;;;6147140;23;20658;-75
2022/11/20 01:13:41;;;;;;;13.98;12.57;;;5.60;99.90;;;;;;6144075;23;20265;-75
2022/11/20 01:16:12;;;;;;;13.93;11.90;;;5.50;99.90;;;;;;6147652;23;20274;-75
2022/11/20 01:18:41;;;;;;;13.60;12.20;;;5.50;99.90;;;;;;6145737;23;20278;-75
2022/11/20 01:21:10;;;;;;;13.85;12.30;;;5.60;99.90;;;;;;6131406;23;20187;-75
2022/11/20 01:23:39;;;;;;;15.55;13.45;;;5.60;99.90;;;;;;6139938;23;20195;-75
2022/11/20 01:26:09;;;;;;;13.52;12.13;;;5.60;99.90;;;;;;6137764;23;20622;-75
2022/11/20 01:28:38;;;;;;;13.35;11.98;;;5.60;99.90;;;;;;6148654;23;20206;-73
2022/11/20 01:31:13;;;;;;;13.73;12.25;;;5.60;99.90;;;;;;6148938;23;20202;-72
2022/11/20 01:33:42;;;;;;;16.88;12.35;;;5.60;99.90;;;;;;6148227;23;20195;-73
2022/11/20 01:36:10;;;;;;;41.25;13.52;;;5.50;99.90;;;;;;6146740;23;20239;-72
2022/11/20 01:38:37;;;;;;;49.03;13.23;;;5.40;99.90;;;;;;6140086;23;20659;-73
2022/11/20 01:41:05;;;;;;;17.20;12.55;;;5.20;99.90;;;;;;6140820;23;20225;-73
2022/11/20 01:43:31;;;;;;;67.43;14.48;;;5.10;99.90;;;;;;6140186;23;20740;-75
2022/11/20 01:46:02;;;;;;;109.18;18.60;;;5.10;99.90;;;;;;6147013;23;20214;-75
2022/11/20 01:48:37;;;;;;;36.20;13.70;;;5.00;99.90;;;;;;6148750;23;20205;-75
2022/11/20 01:51:06;;;;;;;76.80;17.27;;;5.00;99.90;;;;;;6142441;23;20233;-75
2022/11/20 01:53:38;;;;;;;61.25;14.95;;;5.00;99.90;;;;;;6142808;23;20268;-75
2022/11/20 01:56:08;;;;;;;38.17;15.60;;;5.00;99.90;;;;;;6146132;23;20274;-75
2022/11/20 01:58:41;;;;;;;22.52;12.70;;;5.00;99.90;;;;;;6130480;23;20187;-75
2022/11/20 02:01:09;;;;;;;20.80;12.65;;;4.90;99.90;;;;;;6147684;23;20195;-75
2022/11/20 02:03:38;;;;;;;42.72;14.23;;;5.00;99.90;;;;;;6149762;23;20605;-75
2022/11/20 02:06:11;;;;;;;75.13;18.88;;;5.00;99.90;;;;;;6147840;23;20252;-75
2022/11/20 02:08:39;;;;;;;34.92;13.45;;;5.00;99.90;;;;;;6149126;23;20243;-75
2022/11/20 02:11:08;;;;;;;97.43;17.95;;;5.00;99.90;;;;;;6146111;23;20607;-75
2022/11/20 02:13:43;;;;;;;64.80;17.40;;;5.00;99.90;;;;;;6156148;23;20190;-75
2022/11/20 02:16:20;;;;;;;24.20;14.05;;;5.00;99.90;;;;;;6123316;23;20749;-75
2022/11/20 02:18:49;;;;;;;15.30;13.68;;;5.00;99.90;;;;;;6130118;23;20218;-75
2022/11/20 02:21:30;;;;;;;13.20;11.80;;;5.00;99.90;;;;;;6140835;23;20708;-75
2022/11/20 02:24:12;;;;;;;14.65;12.73;;;5.10;99.90;;;;;;6134340;23;20195;-75
2022/11/20 02:26:44;;;;;;;15.30;13.00;;;5.10;99.90;;;;;;6125282;23;20210;-75
2022/11/20 02:29:11;;;;;;;13.13;11.70;;;5.10;99.90;;;;;;6141181;23;20215;-75
2022/11/20 02:31:43;;;;;;;13.27;11.90;;;5.20;99.90;;;;;;6145145;23;20198;-75
2022/11/20 02:34:10;;;;;;;12.85;11.18;;;5.30;99.90;;;;;;6122665;23;20191;-75
2022/11/20 02:36:43;;;;;;;12.73;11.43;;;5.30;99.90;;;;;;6146503;23;20680;-75
2022/11/20 02:39:16;;;;;;;13.80;12.40;;;5.30;99.90;;;;;;6106190;23;20628;-75
2022/11/20 02:41:43;;;;;;;14.02;12.63;;;5.30;99.90;;;;;;6111258;23;20241;-75
2022/11/20 02:44:11;;;;;;;11.73;10.52;;;5.30;99.90;;;;;;6121841;23;20746;-75
2022/11/20 02:46:38;;;;;;;12.32;11.13;;;5.20;99.90;;;;;;6141489;23;20296;-75
2022/11/20 02:49:07;;;;;;;12.55;11.25;;;5.20;99.90;;;;;;6114154;23;20690;-75
2022/11/20 02:51:34;;;;;;;13.00;11.60;;;5.30;99.90;;;;;;6146979;23;20270;-75
2022/11/20 02:54:01;;;;;;;11.80;10.65;;;5.30;99.90;;;;;;6114505;23;20266;-75
2022/11/20 02:56:29;;;;;;;12.00;10.80;;;5.30;99.90;;;;;;6143934;23;20205;-75
2022/11/20 02:58:57;;;;;;;11.35;10.10;;;5.30;99.90;;;;;;6148552;23;20223;-75
2022/11/20 03:01:24;;;;;;;11.65;10.45;;;5.40;99.90;;;;;;6143689;23;20204;-75
2022/11/20 03:03:52;;;;;;;11.30;10.10;;;5.40;99.90;;;;;;6148825;23;20660;-75
2022/11/20 03:06:19;;;;;;;11.45;10.25;;;5.40;99.90;;;;;;6135861;23;20695;-75
2022/11/20 03:08:47;;;;;;;10.02;9.10;;;5.40;99.90;;;;;;6149221;23;20228;-75
2022/11/20 03:11:14;;;;;;;9.02;8.10;;;5.40;99.90;;;;;;6139087;23;20203;-75
2022/11/20 03:13:43;;;;;;;9.13;8.32;;;5.40;99.90;;;;;;6139823;23;20225;-75
2022/11/20 03:16:12;;;;;;;8.65;7.80;;;5.40;99.90;;;;;;6131620;23;20197;-75
2022/11/20 03:18:39;;;;;;;7.50;6.90;;;5.50;99.90;;;;;;6146131;23;20199;-75
2022/11/20 03:21:07;;;;;;;8.05;7.35;;;5.50;99.90;;;;;;6139293;23;20270;-75
2022/11/20 03:23:34;;;;;;;7.50;6.80;;;5.60;99.90;;;;;;6139056;23;20568;-75
2022/11/20 03:26:13;;;;;;;6.30;5.70;;;5.60;99.90;;;;;;6135371;23;20246;-75
2022/11/20 03:28:43;;;;;;;7.10;6.50;;;5.60;99.90;;;;;;6139097;23;20741;-75
2022/11/20 03:31:14;;;;;;;6.38;5.78;;;5.60;99.90;;;;;;6134824;23;20265;-75
2022/11/20 03:33:43;;;;;;;6.30;5.70;;;5.60;99.90;;;;;;6139655;23;20253;-75
2022/11/20 03:36:13;;;;;;;6.50;6.00;;;5.60;99.90;;;;;;6140756;23;20194;-75
2022/11/20 03:38:40;;;;;;;5.68;5.18;;;5.60;99.90;;;;;;6138677;23;20195;-75
2022/11/20 03:41:09;;;;;;;5.65;4.90;;;5.60;99.90;;;;;;6147907;23;20274;-76
2022/11/20 03:43:37;;;;;;;5.75;5.25;;;5.60;99.90;;;;;;6119841;23;20272;-75
2022/11/20 03:46:06;;;;;;;5.10;4.70;;;5.60;99.90;;;;;;6133866;23;20249;-75
2022/11/20 03:48:34;;;;;;;6.13;4.93;;;5.60;99.90;;;;;;6125003;23;20195;-75
2022/11/20 03:51:09;;;;;;;5.43;4.93;;;5.50;99.90;;;;;;6142300;23;20513;-75
2022/11/20 03:53:36;;;;;;;4.97;4.28;;;5.60;99.90;;;;;;6113763;23;20277;-75
2022/11/20 03:56:04;;;;;;;4.93;4.53;;;5.60;99.90;;;;;;6147328;23;20244;-75
2022/11/20 03:58:31;;;;;;;5.28;4.68;;;5.60;99.90;;;;;;6145652;23;20226;-75
2022/11/20 04:00:58;;;;;;;4.78;4.40;;;5.60;99.90;;;;;;6148315;23;20274;-75
2022/11/20 04:03:26;;;;;;;4.53;4.13;;;5.60;99.90;;;;;;6149616;23;20279;-75
2022/11/20 04:05:53;;;;;;;5.00;4.60;;;5.60;99.90;;;;;;6102865;23;20293;-75
2022/11/20 04:08:21;;;;;;;4.30;3.90;;;5.60;99.90;;;;;;6145759;23;20544;-75
2022/11/20 04:10:48;;;;;;;4.78;3.95;;;5.70;99.90;;;;;;6128130;23;20649;-75
2022/11/20 04:13:15;;;;;;;4.55;4.25;;;5.70;99.90;;;;;;6140611;23;20194;-75
2022/11/20 04:15:42;;;;;;;4.50;3.70;;;5.60;99.90;;;;;;6137084;23;20706;-75
2022/11/20 04:18:10;;;;;;;4.10;3.80;;;5.60;99.90;;;;;;6137939;23;20759;-75
2022/11/20 04:20:39;;;;;;;4.85;4.45;;;5.60;99.90;;;;;;6133927;23;20222;-75
2022/11/20 04:23:07;;;;;;;4.55;4.15;;;5.70;99.90;;;;;;6136569;23;20273;-75
2022/11/20 04:25:34;;;;;;;4.05;3.75;;;5.70;99.90;;;;;;6120214;23;20647;-75
2022/11/20 04:28:01;;;;;;;4.60;4.20;;;5.70;99.90;;;;;;6119479;23;20532;-75
2022/11/20 04:30:28;;;;;;;4.40;4.10;;;5.60;99.90;;;;;;6134501;23;20197;-75
2022/11/20 04:32:55;;;;;;;4.40;4.00;;;5.60;99.90;;;;;;6134416;23;20206;-75
2022/11/20 04:35:22;;;;;;;5.97;4.30;;;5.60;99.90;;;;;;6137805;23;20274;-75
2022/11/20 04:37:52;;;;;;;4.53;3.85;;;5.60;99.90;;;;;;6131726;23;20315;-75
2022/11/20 04:40:19;;;;;;;4.18;3.78;;;5.60;99.90;;;;;;6137149;23;20620;-75
2022/11/20 04:42:47;;;;;;;4.78;4.35;;;5.70;99.90;;;;;;6137126;23;20199;-75
2022/11/20 04:45:14;;;;;;;4.30;3.92;;;5.70;99.90;;;;;;6139960;23;20223;-75
2022/11/20 04:47:41;;;;;;;4.45;4.05;;;5.70;99.90;;;;;;6146666;23;20353;-75
2022/11/20 04:50:09;;;;;;;4.00;3.70;;;5.70;99.90;;;;;;6121823;23;20309;-75
2022/11/20 04:52:36;;;;;;;4.88;4.47;;;5.70;99.90;;;;;;6106078;23;20199;-75
2022/11/20 04:55:06;;;;;;;4.63;4.22;;;5.70;99.90;;;;;;6139882;23;20198;-75
2022/11/20 04:57:33;;;;;;;4.60;4.30;;;5.70;99.90;;;;;;6142216;23;20191;-75
2022/11/20 05:00:00;;;;;;;4.35;4.05;;;5.70;99.90;;;;;;6125113;23;20196;-75
2022/11/20 05:02:27;;;;;;;4.47;4.05;;;5.70;99.90;;;;;;6134296;23;20240;-75
2022/11/20 05:04:54;;;;;;;4.53;4.07;;;5.70;99.90;;;;;;6110290;23;20717;-75
2022/11/20 05:07:22;;;;;;;4.85;4.40;;;5.70;99.90;;;;;;6136680;23;20256;-75
2022/11/20 05:09:49;;;;;;;5.38;4.88;;;5.80;99.90;;;;;;6141830;23;20199;-75
2022/11/20 05:12:19;;;;;;;4.95;4.40;;;5.70;99.90;;;;;;6147857;23;20294;-75
2022/11/20 05:14:47;;;;;;;4.97;4.57;;;5.70;99.90;;;;;;6155026;23;20277;-75
2022/11/20 05:17:14;;;;;;;4.20;3.80;;;5.70;99.90;;;;;;6117166;23;20260;-75
2022/11/20 05:19:41;;;;;;;5.30;4.80;;;5.70;99.90;;;;;;6127313;23;20708;-75
2022/11/20 05:22:08;;;;;;;4.28;3.95;;;5.60;99.90;;;;;;6159658;23;20186;-75
2022/11/20 05:24:35;;;;;;;7.40;4.60;;;5.60;99.90;;;;;;6144248;23;20241;-75
2022/11/20 05:27:03;;;;;;;4.60;4.20;;;5.60;99.90;;;;;;6112613;23;20211;-75
2022/11/20 05:29:32;;;;;;;4.72;4.32;;;5.60;99.90;;;;;;6142639;23;20297;-75
2022/11/20 05:31:59;;;;;;;4.70;4.30;;;5.70;99.90;;;;;;6148518;23;20278;-75
2022/11/20 05:34:26;;;;;;;4.70;4.28;;;5.70;99.90;;;;;;6145320;23;20245;-75
2022/11/20 05:36:54;;;;;;;4.60;4.18;;;5.70;99.90;;;;;;6143584;23;20613;-75
2022/11/20 05:39:21;;;;;;;4.07;3.75;;;5.70;99.90;;;;;;6138382;23;20233;-75
2022/11/20 05:42:29;;;;;;;4.28;3.88;;;5.60;99.90;;;;;;6144776;23;20194;-75
2022/11/20 05:44:38;;;;;;;4.93;4.53;;;5.60;99.90;;;;;;6141165;23;20269;-75
2022/11/20 05:47:05;;;;;;;4.80;4.50;;;5.60;99.90;;;;;;6113035;23;20266;-75
2022/11/20 05:49:33;;;;;;;4.88;4.47;;;5.60;99.90;;;;;;6141720;23;20201;-75
2022/11/20 05:51:59;;;;;;;5.82;4.32;;;5.60;99.90;;;;;;6136024;23;20195;-75
2022/11/20 05:54:26;;;;;;;5.03;4.53;;;5.60;99.90;;;;;;6137618;23;20640;-75
2022/11/20 05:56:54;;;;;;;5.50;5.03;;;5.70;99.90;;;;;;6151830;23;20274;-75
2022/11/20 05:59:21;;;;;;;4.95;4.55;;;5.70;99.90;;;;;;6132806;23;20218;-75
2022/11/20 06:01:49;;;;;;;6.57;4.22;;;5.70;99.90;;;;;;6150088;23;20195;-75
2022/11/20 06:04:17;;;;;;;4.93;4.43;;;5.80;99.90;;;;;;6139673;23;20205;-75
2022/11/20 06:06:44;;;;;;;4.93;4.43;;;5.80;99.90;;;;;;6137499;23;20615;-75
2022/11/20 06:09:11;;;;;;;5.38;4.55;;;5.80;99.90;;;;;;6112106;23;20340;-75
2022/11/20 06:11:38;;;;;;;5.38;4.85;;;5.80;99.90;;;;;;6142258;23;20226;-75
2022/11/20 06:14:05;;;;;;;4.72;4.32;;;5.90;99.90;;;;;;6124621;23;20233;-75
2022/11/20 06:16:32;;;;;;;4.65;4.22;;;5.90;99.90;;;;;;6117755;23;20199;-75
2022/11/20 06:19:01;;;;;;;4.00;3.70;;;5.90;99.90;;;;;;6133364;23;20713;-75
2022/11/20 06:21:29;;;;;;;4.18;3.88;;;5.90;99.90;;;;;;6139854;23;20247;-75
2022/11/20 06:23:56;;;;;;;4.00;3.70;;;6.00;99.90;;;;;;6121632;23;20199;-75
2022/11/20 06:26:26;;;;;;;3.65;3.35;;;6.00;99.90;;;;;;6145928;23;20240;-75
2022/11/20 06:28:54;;;;;;;3.80;3.50;;;6.10;99.90;;;;;;6099181;23;20198;-75
2022/11/20 06:31:22;;;;;;;4.95;3.55;;;6.00;99.90;;;;;;6149787;23;20536;-75
2022/11/20 06:33:50;;;;;;;3.92;3.53;;;6.10;99.90;;;;;;6146338;23;20207;-75
2022/11/20 06:36:21;;;;;;;4.05;3.05;;;6.10;99.90;;;;;;6148503;23;20463;-75
2022/11/20 06:38:48;;;;;;;3.58;3.28;;;6.20;99.90;;;;;;6131505;23;20229;-75
2022/11/20 06:41:18;;;;;;;3.40;3.10;;;6.20;99.90;;;;;;6138071;23;20194;-75
2022/11/20 06:43:45;;;;;;;3.90;3.60;;;6.20;99.90;;;;;;6135367;23;20221;-75
2022/11/20 06:46:13;;;;;;;4.32;3.10;;;6.20;99.90;;;;;;6120072;23;20276;-75
2022/11/20 06:48:41;;;;;;;3.47;3.10;;;6.30;99.90;;;;;;6132428;23;20222;-75
2022/11/20 06:51:09;;;;;;;2.83;2.63;;;6.30;99.90;;;;;;6146661;23;20207;-75
2022/11/20 06:53:37;;;;;;;3.60;2.78;;;6.30;99.90;;;;;;6148168;23;20576;-75
2022/11/20 06:56:06;;;;;;;3.58;2.83;;;6.30;99.90;;;;;;6136838;23;20187;-75
2022/11/20 06:58:35;;;;;;;3.00;2.80;;;6.30;99.90;;;;;;6147972;23;20230;-75
2022/11/20 07:01:05;;;;;;;2.67;2.40;;;6.30;99.90;;;;;;6103772;23;20217;-75
2022/11/20 07:03:33;;;;;;;3.33;2.50;;;6.30;99.90;;;;;;6108405;23;20195;-75
2022/11/20 07:06:01;;;;;;;3.00;2.70;;;6.30;99.90;;;;;;6110436;23;20207;-75
2022/11/20 07:08:28;;;;;;;2.50;2.30;;;6.30;99.90;;;;;;6146656;23;20501;-75
2022/11/20 07:11:00;;;;;;;2.85;2.33;;;6.40;99.90;;;;;;6139885;23;20250;-75
2022/11/20 07:13:27;;;;;;;2.50;2.30;;;6.40;99.90;;;;;;6140257;23;20198;-75
2022/11/20 07:15:54;;;;;;;2.65;2.38;;;6.40;99.90;;;;;;6140139;23;20218;-75
2022/11/20 07:18:22;;;;;;;2.97;2.67;;;6.40;99.90;;;;;;6149662;23;20198;-75
2022/11/20 07:20:49;;;;;;;2.60;2.40;;;6.40;99.90;;;;;;6148763;23;20231;-75
2022/11/20 07:23:16;;;;;;;3.05;2.60;;;6.40;99.90;;;;;;6142244;23;20270;-75
2022/11/20 07:25:44;;;;;;;2.33;2.13;;;6.50;99.90;;;;;;6149506;23;20194;-75
2022/11/20 07:28:13;;;;;;;2.00;1.90;;;6.50;99.90;;;;;;6149939;23;20214;-75
2022/11/20 07:30:40;;;;;;;2.95;2.35;;;6.50;99.90;;;;;;6145651;23;20195;-74
2022/11/20 07:33:07;;;;;;;2.33;2.13;;;6.50;99.90;;;;;;6150134;23;20195;-75
2022/11/20 07:35:35;;;;;;;2.85;2.35;;;6.60;99.90;;;;;;6148263;23;20331;-75
2022/11/20 07:38:02;;;;;;;2.78;2.50;;;6.60;99.90;;;;;;6145213;23;20704;-75
2022/11/20 07:40:30;;;;;;;2.60;2.40;;;6.60;99.90;;;;;;6148391;23;20199;-74
2022/11/20 07:42:58;;;;;;;3.00;2.80;;;6.60;99.90;;;;;;6146865;23;20218;-74
2022/11/20 07:45:26;;;;;;;3.85;2.70;;;6.70;99.90;;;;;;6144115;23;20232;-75
2022/11/20 07:47:53;;;;;;;2.60;2.40;;;6.70;99.90;;;;;;6149966;23;20293;-75
2022/11/20 07:50:22;;;;;;;2.60;2.40;;;6.70;99.90;;;;;;6143211;23;20210;-75
2022/11/20 07:52:49;;;;;;;2.75;2.50;;;6.70;99.90;;;;;;6142412;23;20276;-75
2022/11/20 07:55:16;;;;;;;2.75;2.55;;;6.70;99.90;;;;;;6137515;23;21453;-74
2022/11/20 07:57:43;;;;;;;4.32;2.60;;;6.70;99.90;;;;;;6150266;23;20670;-75
2022/11/20 08:00:12;;;;;;;2.60;2.40;;;6.70;99.90;;;;;;6144312;23;20199;-75
2022/11/20 08:02:42;;;;;;;2.95;2.65;;;6.70;99.90;;;;;;6146054;23;20190;-75
2022/11/20 08:05:09;;;;;;;2.80;2.33;;;6.70;99.90;;;;;;6147311;23;20198;-75
2022/11/20 08:07:38;;;;;;;2.42;2.22;;;6.80;99.90;;;;;;6151276;23;20230;-75
2022/11/20 08:10:06;;;;;;;2.80;2.60;;;6.80;99.90;;;;;;6148573;23;20625;-75
2022/11/20 08:15:18;;;;;;;2.83;2.60;;;6.90;99.90;;;;;;6136515;23;20286;-75
2022/11/20 08:17:47;;;;;;;2.50;2.40;;;6.90;99.90;;;;;;6149796;23;20286;-75
2022/11/20 08:20:14;;;;;;;2.42;2.17;;;6.90;99.90;;;;;;6147131;23;20198;-75
2022/11/20 08:22:41;;;;;;;2.50;2.40;;;7.00;99.90;;;;;;6130592;23;20190;-75
2022/11/20 08:25:09;;;;;;;1.98;1.85;;;7.00;99.90;;;;;;6119345;23;20274;-75
2022/11/20 08:27:36;;;;;;;3.42;2.20;;;7.10;99.90;;;;;;6144864;23;20591;-75
2022/11/20 08:30:04;;;;;;;3.10;2.80;;;7.20;99.90;;;;;;6119925;23;20191;-75
2022/11/20 08:32:31;;;;;;;2.38;2.20;;;7.20;99.90;;;;;;6139062;23;20195;-75
2022/11/20 08:35:00;;;;;;;2.38;2.17;;;7.20;99.90;;;;;;6124365;23;20228;-75
2022/11/20 08:37:27;;;;;;;1.83;1.73;;;7.30;99.90;;;;;;6124001;23;20646;-74
2022/11/20 08:39:56;;;;;;;3.63;1.83;;;7.30;99.90;;;;;;6137187;23;20191;-75
2022/11/20 08:42:23;;;;;;;2.13;1.92;;;7.40;99.90;;;;;;6134689;23;20203;-74
2022/11/20 08:44:51;;;;;;;2.55;1.50;;;7.40;99.90;;;;;;6123560;23;20569;-74
2022/11/20 08:47:18;;;;;;;1.70;1.60;;;7.30;99.90;;;;;;6132969;23;20284;-74
2022/11/20 08:49:44;;;;;;;1.60;1.50;;;7.30;99.90;;;;;;6098928;23;20535;-75
2022/11/20 08:52:14;;;;;;;6.45;1.80;;;7.20;99.90;;;;;;6136827;23;20194;-74
2022/11/20 08:54:41;;;;;;;1.45;1.35;;;7.20;99.90;;;;;;6134546;23;20191;-75
2022/11/20 08:57:08;;;;;;;1.80;1.40;;;7.20;99.90;;;;;;6135575;23;20319;-75
2022/11/20 08:59:38;;;;;;;1.55;1.45;;;7.20;99.90;;;;;;6146253;23;20282;-75
2022/11/20 09:02:05;;;;;;;2.20;2.00;;;7.20;99.90;;;;;;6138589;23;20195;-74
2022/11/20 09:04:32;;;;;;;1.33;1.23;;;7.40;99.90;;;;;;6136511;23;20303;-75
2022/11/20 09:07:01;;;;;;;1.23;1.13;;;7.30;99.90;;;;;;6113257;23;20239;-74
2022/11/20 09:09:29;;;;;;;1.52;1.20;;;7.30;99.90;;;;;;6146499;23;20214;-75
2022/11/20 09:11:56;;;;;;;1.02;0.93;;;7.30;99.90;;;;;;6138311;23;20278;-75
2022/11/20 09:14:28;;;;;;;1.08;0.98;;;7.30;99.90;;;;;;6144502;23;20205;-75
2022/11/20 09:16:55;;;;;;;1.10;1.00;;;7.30;99.90;;;;;;6138901;23;20731;-75
2022/11/20 09:19:24;;;;;;;1.65;1.35;;;7.30;99.90;;;;;;6148723;23;20259;-75
2022/11/20 09:21:52;;;;;;;1.35;1.25;;;7.30;99.90;;;;;;6143378;23;20793;-75
2022/11/20 09:24:20;;;;;;;1.33;1.23;;;7.30;99.90;;;;;;6134407;23;20221;-76
2022/11/20 09:26:48;;;;;;;1.60;1.50;;;7.30;99.90;;;;;;6104665;23;20211;-76
2022/11/20 09:29:16;;;;;;;1.10;1.00;;;7.30;99.90;;;;;;6125891;23;20267;-75
2022/11/20 09:31:43;;;;;;;1.10;1.00;;;7.40;99.90;;;;;;6138539;23;20188;-75
2022/11/20 09:34:10;;;;;;;1.27;1.17;;;7.40;99.90;;;;;;6137538;23;20190;-76
2022/11/20 09:36:38;;;;;;;1.58;1.48;;;7.40;99.90;;;;;;6139390;23;20194;-76
2022/11/20 09:39:05;;;;;;;1.23;1.10;;;7.40;99.90;;;;;;6146909;23;20222;-75
2022/11/20 09:41:47;;;;;;;1.55;1.10;;;7.40;99.90;;;;;;6141023;23;20211;-75
2022/11/20 09:44:31;;;;;;;1.35;1.20;;;7.40;99.90;;;;;;6107775;23;20191;-75
2022/11/20 09:47:07;;;;;;;1.33;1.23;;;7.40;99.90;;;;;;6135588;23;20218;-76
2022/11/20 09:49:48;;;;;;;1.38;1.27;;;7.40;99.90;;;;;;6116226;23;20662;-75
2022/11/20 09:52:23;;;;;;;1.63;1.52;;;7.40;99.90;;;;;;6131934;23;20194;-75
2022/11/20 09:54:51;;;;;;;1.00;0.90;;;7.50;99.90;;;;;;6128626;23;20191;-75
2022/11/20 09:57:21;;;;;;;1.20;1.10;;;7.50;99.90;;;;;;6145308;23;20656;-75
2022/11/20 09:59:56;;;;;;;1.65;1.55;;;7.50;99.90;;;;;;6130503;23;20199;-75
2022/11/20 10:02:31;;;;;;;1.38;1.27;;;7.50;99.90;;;;;;6145274;23;20266;-75
2022/11/20 10:05:04;;;;;;;1.60;1.50;;;7.40;99.90;;;;;;6132048;23;20233;-74
2022/11/20 10:07:38;;;;;;;1.15;1.10;;;7.40;99.90;;;;;;6133812;23;20200;-75
2022/11/20 10:10:06;;;;;;;1.50;1.40;;;7.40;99.90;;;;;;6127573;23;20277;-74
2022/11/20 10:12:49;;;;;;;1.70;1.60;;;7.40;99.90;;;;;;6132692;23;20215;-75
2022/11/20 10:15:29;;;;;;;3.25;1.58;;;7.30;99.90;;;;;;6132201;23;20182;-75
2022/11/20 10:18:12;;;;;;;1.58;1.48;;;7.40;99.90;;;;;;6105764;23;20236;-75
2022/11/20 10:20:49;;;;;;;2.60;1.80;;;7.40;99.90;;;;;;6127952;23;20195;-75
2022/11/20 10:23:34;;;;;;;1.60;1.50;;;7.30;99.90;;;;;;6136006;23;20681;-75
2022/11/20 10:26:03;;;;;;;1.83;1.65;;;7.30;99.90;;;;;;6103736;23;20281;-75
2022/11/20 10:28:49;;;;;;;1.60;1.50;;;7.30;99.90;;;;;;6133708;23;20211;-75
2022/11/20 10:31:31;;;;;;;1.48;1.38;;;7.30;99.90;;;;;;6118172;23;20191;-74
2022/11/20 10:34:01;;;;;;;1.55;1.45;;;7.30;99.90;;;;;;6102807;23;20652;-75
2022/11/20 10:36:34;;;;;;;1.90;1.33;;;7.20;99.90;;;;;;6134538;23;20704;-74
2022/11/20 10:39:06;;;;;;;1.45;1.10;;;7.20;99.90;;;;;;6139781;23;20183;-74
2022/11/20 10:41:39;;;;;;;1.33;1.00;;;7.20;99.90;;;;;;6122451;23;20187;-74
2022/11/20 10:44:13;;;;;;;1.40;1.30;;;7.20;99.90;;;;;;6134664;23;20529;-74
2022/11/20 10:46:45;;;;;;;1.60;1.50;;;7.20;99.90;;;;;;6132970;23;20187;-75
2022/11/20 10:49:15;;;;;;;2.03;1.50;;;7.20;99.90;;;;;;6140043;23;20234;-78
2022/11/20 10:51:56;;;;;;;2.35;1.30;;;7.20;99.90;;;;;;6103858;23;20191;-76
2022/11/20 10:54:34;;;;;;;1.30;1.20;;;7.20;99.90;;;;;;6138009;23;20247;-75
2022/11/20 10:57:10;;;;;;;1.95;1.50;;;7.10;99.90;;;;;;6137274;23;20302;-75
2022/11/20 10:59:46;;;;;;;3.17;2.10;;;7.00;99.90;;;;;;6138163;23;20202;-74
2022/11/20 11:02:40;;;;;;;2.03;1.88;;;7.00;99.90;;;;;;6121146;23;20788;-74
2022/11/20 11:05:18;;;;;;;2.30;2.10;;;6.90;99.90;;;;;;6114531;23;20791;-74
2022/11/20 11:07:46;;;;;;;2.85;2.65;;;6.90;99.90;;;;;;6118247;23;20244;-74
2022/11/20 11:10:17;;;;;;;2.88;2.65;;;7.00;99.90;;;;;;6118951;23;20273;-74
2022/11/20 11:12:47;;;;;;;2.97;2.78;;;7.00;99.90;;;;;;6091664;23;20182;-74
2022/11/20 11:15:26;;;;;;;2.80;2.60;;;7.10;99.90;;;;;;6133188;23;20186;-74
2022/11/20 11:17:56;;;;;;;3.80;2.80;;;7.10;99.90;;;;;;6113881;23;20189;-74
2022/11/20 11:20:24;;;;;;;3.00;2.80;;;7.20;99.90;;;;;;6089746;23;20278;-74
2022/11/20 11:22:54;;;;;;;3.10;2.85;;;7.20;99.90;;;;;;6128294;23;20200;-74
2022/11/20 11:25:28;;;;;;;3.20;2.92;;;7.20;99.90;;;;;;6131296;23;20279;-74
2022/11/20 11:27:57;;;;;;;2.80;2.60;;;7.30;99.90;;;;;;6134245;23;20211;-74
2022/11/20 11:30:25;;;;;;;2.10;2.00;;;7.40;99.90;;;;;;6142548;23;20190;-75
2022/11/20 11:33:06;;;;;;;2.38;2.08;;;7.50;99.90;;;;;;6089652;23;20215;-74
2022/11/20 11:35:35;;;;;;;3.75;2.10;;;7.70;99.90;;;;;;6126695;23;20220;-74
2022/11/20 11:38:06;;;;;;;2.30;2.10;;;8.10;99.90;;;;;;6131219;23;20186;-75
2022/11/20 11:40:39;;;;;;;3.35;2.10;;;8.70;99.90;;;;;;6138445;23;20203;-75
2022/11/20 11:45:04;;;;;;;1.90;1.70;;;9.40;99.90;;;;;;6138254;23;20539;-75
2022/11/20 11:46:20;;;;;;;4.20;2.08;;;9.70;99.90;;;;;;6094644;23;20293;-75
2022/11/20 11:48:58;;;;;;;1.83;1.73;;;9.90;99.90;;;;;;6136120;23;20211;-75
2022/11/20 11:51:30;;;;;;;2.28;1.80;;;9.90;99.90;;;;;;6134939;23;20191;-75
2022/11/20 11:54:00;;;;;;;2.42;1.92;;;9.90;99.90;;;;;;6133903;23;20228;-75
2022/11/20 11:56:29;;;;;;;2.03;1.83;;;10.00;99.90;;;;;;6137061;23;20193;-75
2022/11/20 11:59:00;;;;;;;1.90;1.70;;;9.90;99.90;;;;;;6140001;23;20185;-74
2022/11/20 12:01:33;;;;;;;3.45;2.00;;;10.00;99.90;;;;;;6125003;23;20193;-75
2022/11/20 12:04:07;;;;;;;2.00;1.42;;;10.10;99.90;;;;;;6133917;23;20189;-75
2022/11/20 12:06:37;;;;;;;3.08;1.75;;;10.00;99.90;;;;;;6112009;23;20191;-75
2022/11/20 12:09:06;;;;;;;1.67;1.58;;;9.70;99.90;;;;;;6127743;23;20202;-75
2022/11/20 12:11:39;;;;;;;1.73;1.60;;;9.40;99.90;;;;;;6144641;23;20190;-75
2022/11/20 12:14:16;;;;;;;3.70;1.88;;;9.40;99.90;;;;;;6143121;23;20275;-75
2022/11/20 12:16:43;;;;;;;1.38;1.27;;;9.40;99.90;;;;;;6144499;23;20197;-75
2022/11/20 12:19:15;;;;;;;1.73;1.35;;;9.80;99.90;;;;;;6138383;23;20192;-75
2022/11/20 12:21:53;;;;;;;2.25;1.20;;;10.30;99.90;;;;;;6105606;23;20261;-75
2022/11/20 12:24:42;;;;;;;2.20;1.20;;;10.80;99.90;;;;;;6138452;23;20266;-75
2022/11/20 12:27:37;;;;;;;2.08;1.65;;;11.10;99.90;;;;;;6126806;23;20252;-76
2022/11/20 12:30:09;;;;;;;4.40;1.40;;;11.60;99.90;;;;;;6129930;23;20769;-75
2022/11/20 12:33:19;;;;;;;1.50;1.40;;;11.70;99.90;;;;;;6133313;23;20187;-75
2022/11/20 12:36:02;;;;;;;2.35;1.20;;;11.60;99.90;;;;;;6131096;23;20257;-75
2022/11/20 12:38:46;;;;;;;1.60;1.20;;;11.40;99.90;;;;;;6122221;23;20233;-75
2022/11/20 12:47:19;;;;;;;1.33;1.20;;;11.00;99.90;;;;;;6126380;23;20191;-75
2022/11/20 12:49:57;;;;;;;1.27;1.17;;;10.90;99.90;;;;;;6130317;23;20294;-75
2022/11/20 12:52:40;;;;;;;1.50;1.05;;;10.90;99.90;;;;;;6127766;23;20875;-75
2022/11/20 12:55:22;;;;;;;1.50;1.20;;;10.80;99.90;;;;;;6131449;23;20194;-76
2022/11/20 12:57:56;;;;;;;2.38;1.00;;;10.70;99.90;;;;;;6133548;23;20194;-76
2022/11/20 13:00:24;;;;;;;2.03;1.00;;;10.70;99.90;;;;;;6142553;23;20202;-75
2022/11/20 13:03:39;;;;;;;2.03;1.10;;;10.80;99.90;;;;;;6111470;23;20530;-75
2022/11/20 13:06:13;;;;;;;1.98;1.10;;;10.90;99.90;;;;;;6060001;23;20203;-76
2022/11/20 13:08:47;;;;;;;1.00;0.85;;;11.00;99.90;;;;;;6129832;23;20703;-75
2022/11/20 13:11:22;;;;;;;2.75;1.13;;;11.10;99.90;;;;;;6104625;23;20187;-77
2022/11/20 13:14:05;;;;;;;2.08;1.00;;;10.90;99.90;;;;;;6126690;23;20639;-77
2022/11/20 13:16:38;;;;;;;2.92;1.42;;;10.50;99.90;;;;;;6129959;23;20232;-76